Dauntless Aviation
Airports North America United States Colorado
98CO

NCMC HELIPORT

GREELEY, CO, USA

Airport Info
Suggest Updated Information for this Airport

Location

Latitude / Longitude: 40°24'53"N / 104°42'28"W
  40°24.9'N / 104°42.4667'W
  40.4150 / -104.7078
Elevation: 4882 ft. (estimated)
Variation: 12E (1985)
From city: 00 miles N of GREELEY, CO

Operations

Facility use: Private
Sectional chart: DENVER
Control tower: no
Boundary ARTCC: DENVER
FSS: DENVER [1-800-WX-BRIEF]
Segmented circle: no

Communications

Nearby radio navigation aids

VOR radial/distance VOR name Freq Var
GLL 233oT/8.9 GILL VORTAC 114.20 13E
DVV 353oT/31.5 MILE HIGH VORTAC 114.70 11E
BJC 33oT/36.1 JEFFCO VOR/DME 115.40 11E
DEN 357oT/36.2 DENVER VOR/DME 117.90 11E
 
NDB name Hdg/Dist Freq Var ID

Services

Runway Information

Helipad H1

Dimensions: 40 x 40 ft.
Surface: PORTLAND CEMENT CONCRETE,NO SPECIAL SURFACE TREATMENT
 

Additional Remarks

Instrument Procedures

No published instrument procedures available
Topographic chart at:
Satellite photo at:
Airport distance calculator
From:
Weather Reports

METAR

KGXY
4.2nm NE
KGXY 111855Z 00000KT 10SM CLR 04/M01 A3013 RMK AO1
KFNL
14.3nm W
KFNL 111855Z AUTO 00000KT 10SM CLR 06/M04 A3014 RMK AO1
KLMO
25.8nm SW
KLMO 111855Z AUTO 02009G16KT 10SM CLR 10/M02 A3013 RMK AO2 T01031024
KEIK
28.6nm S
KEIK 111855Z AUTO 28013G22KT 10SM CLR 17/M06 A3011 RMK AO2 T01701060
KBDU
33.3nm SW
KBDU 111857Z AUTO 28015G27KT 10SM CLR 17/M07 A3010 RMK AO2
KDEN
35.0nm SE
KDEN 111853Z 28016G21KT 10SM FEW110 SCT150 BKN200 16/M06 A3012 RMK AO2 SLP171 T01611056

TAF

KDEN
35.0nm SE
KDEN 111725Z 1118/1224 22010KT P6SM FEW120 SCT220 FM112100 30008KT P6SM SCT120 BKN200 FM120500 19010KT P6SM FEW140 SCT220 FM121600 12010KT P6SM SCT220 FM122000 05007KT P6SM SCT220
KBJC
35.3nm S
KBJC 111725Z 1118/1218 28012KT P6SM FEW120 SCT220 FM112200 26010KT P6SM SCT120 BKN220 FM120400 29010KT P6SM FEW130 SCT220 FM121600 10007KT P6SM FEW130 SCT220
Safelog

 

Dauntless Aviation

© 2007-2016 Dauntless Aviation, all rights reserved
Information provided via PilotNav comes from a variety of official and unofficial data sources. As errors are possible, do not use PilotNav for primary flight planning purposes. Verify any information that you receive via PilotNav with current and canonical charts and other official documents. The material in this database is subject to database copyrights held by Dauntless Aviation and may not be copied without the express permission of Dauntless Aviation - licenses for use of part of all of this data are available for purchase; enquire via the Dauntless Aviation helpdesk. A number of mechanisms and markers exist in the database to protect against and identify infringement / copyright. Automated queries against this website are stictly prohibited, and all activity is logged and analyzed.